Airfield :
LOGIN :

Register | Disclaimer

   EN    FR    IT 

 










Legend :    VFR   Marginal VFR   IFR   Intensive IFR   Very Intensive IFR
Visi :
Ceiling :
>= 8 km
>= 3000ft
5 to 8 km
1000 to 3000 ft
1500m to 5 km
500 to 1000 ft
800 to 1500m
200 to 500 ft
< 800m
< 200 ft
Symbols :   Thunderstorms  Fog  Heavy snow  Heavy precipitations  Wind > 20 kt
SIGMETs :     Misc.  Thunderstorms  Icing  Turbulence  Mountain Waves  Volcanic Ashes







- Airport Elevation : 2001 ft
- IATA code : MAD


LEMD - Madrid

CURRENT METAR :
  • 130600Z 16005KT 130V190 9999 FEW008 SCT012 BKN020 08/08 Q1009 R88/29//95 TEMPO RA

EXPIRED METARs :
  • 130545Z 15005KT 110V170 9000 FEW008 SCT014 BKN022 08/08 Q1009 R88/29//95 TEMPO RA
  • 130530Z 16006KT 8000 FEW007 BKN013 BKN022 08/08 Q1010 TEMPO RA
  • 130500Z 16006KT 7000 SCT006 BKN009 BKN020 08/08 Q1011 TEMPO RA
  • 130430Z 17007KT 4000 BR SCT006 BKN009 08/08 Q1011 REDZ TEMPO RA
  • 130414Z 17006KT 3000 DZ BR BKN007 OVC010 08/08 Q1012 TEMPO RA
  • 130400Z 17005KT 3000 -RA BR BKN006 OVC010 08/08 Q1012 TEMPO RA
  • 130330Z 18007KT 5000 -RA BR BKN006 OVC013 08/08 Q1013 TEMPO RA

TAF TAF LEMD
Valid from the 13 at 06:00 until the 14 at 12:00 UTC


130500Z 1306/1412 22008KT 4000 BR SCT006 BKN010 TX10/1315Z TNM00/1406Z
PROB30
TEMPO 1306/1309 24015G25KT
BECMG 1309/1310 29015KT
TEMPO 1309/1318 30017G34KT
TEMPO 1306/1312 4000 RA BKN012
BECMG 1312/1314 9999 NSW SCT025
PROB30
TEMPO 1312/1317 FEW025CB
No reported NOTAMs for that airfield.
3 SIGMETs reported for the Madrid FIR (LECM) :
 
Severe turbulence
LECM SIGMET 3 VALID 130540/130800 LEVA
LECM MADRID UIR SEV TURB OBS AT 0540Z WI N4340 W00211 - N4247 W00209 - N4243 W00113 - N4309 W00124 - N4340 W00211 FL360/380 STNR NC=
Severe turbulence
LECM SIGMET 2 VALID 130600/131000 LEVA
LECM MADRID FIR/UIR SEV TURB FCST W OF LINE N3757 W00501 - N3554 W00417 FL240/340 MOV E NC=
Severe turbulence
LECM SIGMET 1 VALID 130400/130800 LEVA
LECM MADRID FIR SEV TURB FCST W OF LINE N4435 W006 - N3551 W00506 SFC/FL220 MOV E NC=



MET'MAP, your aeronautical weather chart ! - Copyright ORBIFLY December 2007 - Disclaimer

ORBIFLY MET'MAP TEAM :

Programming & Development : Alexandra Zaïnal
Concept & Development : Baudouin d'Aumeries
Co-Development & Prog : Marc-Olivier Méhu
Technical & hardware support : Manuel Goepfert

Contact : metmap@orbifly.com




SOURCES & CREDITS :

   NOAA